Startpagina
METAR-TAF:

METAR-TAF

Vliegvelden :

Xi'an, China

Internationale luchthaven Xi'an Xianyang

breedte: 34-26N, lengte: 108-45E, hoogte: 479 m

Actueel weer

Dit bericht is 50 minuten geleden gemaakt, om 08:00 UTC
Wind 8 kt uit het oostnoordoosten, variërend tussen het noorden en het zuidzuidoosten
Temperatuur 37°C
Vochtigheid 27%
Druk 1005 hPa
Zicht 10 km of meer
geen wolken onder 1500 m en geen cumulonimbus

METAR: ZLXY 280800Z 06004MPS 010V150 CAVOK 37/15 Q1005 NOSIG

Tijdstip: 16:50 (08:50 UTC)

Verwachting

Dit bericht is 5 uur en het 48 minuten geleden gemaakt, om 03:02 UTC
Verwachting geldig van 28 om 06 UTC tot 29 om 06 UTC
Wind 6 kt uit het zuidoosten
Zicht: 6000 m

TAF: ZLXY 280302Z 2806/2906 13003MPS 6000 NSC TX37/2808Z TN20/2820Z

Waarnemingen en weersverwachtingen van meer dan 4000 vliegvelden (METAR en TAF).

De beschikbare stations zijn de gele en rode punten op de kaart.

Ga met uw muis naar het station om de naam te zien.

Klik dan om waarnemingen en weersverwachtingen te zien.

kaart wijzigen: klik op de groene knoppen met een zwart kruis om in te zoomen, op de groene knop met een streepje om uit te zoomen of op de groene pijlen voor aangrenzende kaarten.


METAR-TAF: